createdAt,value
2022-07-31T00:05:51.122Z,82.56
2022-07-31T00:13:57.173Z,83.22
2022-07-31T00:21:19.936Z,83.48
2022-07-31T00:28:53.566Z,83.73
2022-07-31T00:36:29.961Z,84.74
2022-07-31T00:44:03.904Z,84.71
2022-07-31T00:51:39.427Z,86.19
2022-07-31T00:59:12.988Z,88.13
2022-07-31T01:06:47.983Z,88.25
2022-07-31T01:14:23.276Z,89.89
2022-07-31T01:22:00.760Z,91.49
2022-07-31T01:29:38.569Z,92.42
2022-07-31T01:37:13.744Z,94.73
2022-07-31T01:44:52.297Z,95.16
2022-07-31T01:52:27.759Z,96.93
2022-07-31T02:00:03.761Z,97.86
2022-07-31T02:07:38.157Z,98.66
2022-07-31T02:15:13.997Z,99.69
2022-07-31T02:22:47.629Z,100.00
2022-07-31T02:30:22.652Z,100.00
2022-07-31T02:37:57.231Z,100.00
2022-07-31T02:45:32.611Z,100.00
2022-07-31T02:53:06.227Z,100.00
2022-07-31T03:00:41.341Z,100.00
2022-07-31T03:08:15.001Z,100.00
2022-07-31T03:15:51.091Z,100.00
2022-07-31T03:23:26.561Z,100.00
2022-07-31T03:31:01.490Z,100.00
2022-07-31T03:38:41.651Z,100.00
2022-07-31T03:46:20.160Z,100.00
2022-07-31T03:53:54.031Z,100.00
2022-07-31T04:01:29.001Z,100.00
2022-07-31T04:09:22.570Z,100.00
2022-07-31T04:16:57.524Z,100.00
2022-07-31T04:24:31.165Z,100.00
2022-07-31T04:32:06.615Z,100.00
2022-07-31T04:39:40.434Z,100.00
2022-07-31T04:47:15.374Z,100.00
2022-07-31T04:54:48.995Z,100.00
2022-07-31T05:02:23.877Z,100.00
2022-07-31T05:09:59.700Z,100.00
2022-07-31T05:17:34.621Z,100.00
2022-07-31T05:25:08.585Z,100.00
2022-07-31T05:32:43.489Z,100.00
2022-07-31T05:40:17.086Z,100.00
2022-07-31T05:47:52.054Z,100.00
2022-07-31T05:55:25.737Z,100.00
2022-07-31T06:03:01.049Z,100.00
2022-07-31T06:10:34.611Z,100.00
2022-07-31T06:18:09.654Z,99.87
2022-07-31T06:25:43.222Z,96.48
2022-07-31T06:33:37.082Z,95.95
2022-07-31T06:41:11.650Z,93.99
2022-07-31T06:48:46.569Z,91.69
2022-07-31T06:56:20.560Z,89.97
2022-07-31T07:03:55.879Z,86.92
2022-07-31T07:11:29.679Z,82.12
2022-07-31T07:19:04.691Z,80.99
2022-07-31T07:26:38.408Z,78.99
2022-07-31T07:34:13.604Z,76.27
2022-07-31T07:41:47.244Z,72.97
2022-07-31T07:49:22.775Z,72.29
2022-07-31T07:56:56.783Z,71.81
2022-07-31T08:04:31.802Z,70.55
2022-07-31T08:12:08.619Z,68.83
2022-07-31T08:19:46.129Z,65.43
2022-07-31T08:27:39.889Z,65.01
2022-07-31T08:35:15.640Z,61.06
2022-07-31T08:42:49.311Z,58.67
2022-07-31T08:50:24.636Z,57.84
2022-07-31T08:57:58.374Z,56.79
2022-07-31T09:05:42.604Z,56.04
2022-07-31T09:13:17.942Z,54.56
2022-07-31T09:20:57.084Z,52.64
2022-07-31T09:28:34.981Z,54.44
2022-07-31T09:36:10.179Z,53.16
2022-07-31T09:43:52.020Z,49.76
2022-07-31T09:51:27.125Z,49.46
2022-07-31T09:59:01.065Z,49.35
2022-07-31T10:06:37.187Z,50.84
2022-07-31T10:14:13.667Z,50.75
2022-07-31T10:21:52.043Z,50.29
2022-07-31T10:29:27.375Z,48.52
2022-07-31T10:37:11.541Z,49.16
2022-07-31T10:44:46.458Z,47.82
2022-07-31T10:52:29.049Z,46.77
2022-07-31T11:00:11.771Z,46.99
2022-07-31T11:07:47.060Z,47.87
2022-07-31T11:15:21.793Z,45.72
2022-07-31T11:23:01.067Z,46.28
2022-07-31T11:30:35.716Z,45.86
2022-07-31T11:38:10.973Z,45.80
2022-07-31T11:45:48.485Z,46.47
2022-07-31T11:53:24.006Z,44.88
2022-07-31T12:00:58.968Z,44.93
2022-07-31T12:08:36.662Z,44.45
2022-07-31T12:16:11.361Z,45.00
2022-07-31T12:23:47.810Z,45.84
2022-07-31T12:31:21.622Z,46.45
2022-07-31T12:39:06.068Z,45.20
2022-07-31T12:46:39.598Z,45.46
2022-07-31T12:54:15.065Z,43.90
2022-07-31T13:01:48.644Z,42.91
2022-07-31T13:09:23.654Z,41.94
2022-07-31T13:16:57.439Z,43.20
2022-07-31T13:24:32.612Z,42.19
2022-07-31T13:32:08.667Z,41.35
2022-07-31T13:39:43.650Z,42.77
2022-07-31T13:47:17.253Z,40.67
2022-07-31T13:54:52.269Z,39.60
2022-07-31T14:02:25.871Z,38.91
2022-07-31T14:10:00.889Z,38.79
2022-07-31T14:17:34.739Z,39.06
2022-07-31T14:25:10.151Z,36.78
2022-07-31T14:32:43.785Z,38.31
2022-07-31T14:40:19.295Z,35.17
2022-07-31T14:47:55.136Z,35.17
2022-07-31T14:55:30.129Z,35.65
2022-07-31T15:03:03.821Z,33.33
2022-07-31T15:10:38.732Z,34.36
2022-07-31T15:18:12.482Z,35.06
2022-07-31T15:25:47.409Z,36.13
2022-07-31T15:33:21.053Z,37.06
2022-07-31T15:40:56.563Z,35.77
2022-07-31T15:48:30.192Z,35.76
2022-07-31T15:56:05.827Z,33.83
2022-07-31T16:03:50.692Z,33.95
2022-07-31T16:12:04.488Z,32.89
2022-07-31T16:19:24.781Z,34.36
2022-07-31T16:27:00.027Z,32.00
2022-07-31T16:34:33.541Z,30.93
2022-07-31T16:42:08.578Z,32.39
2022-07-31T16:49:45.054Z,33.09
2022-07-31T16:57:21.305Z,33.67
2022-07-31T17:04:54.991Z,34.45
2022-07-31T17:12:30.911Z,35.17
2022-07-31T17:20:05.036Z,35.69
2022-07-31T17:27:43.064Z,35.47
2022-07-31T17:35:16.800Z,37.28
2022-07-31T17:42:51.866Z,38.08
2022-07-31T17:50:25.620Z,42.13
2022-07-31T17:58:00.764Z,42.34
2022-07-31T18:05:36.211Z,42.96
2022-07-31T18:13:11.468Z,43.24
2022-07-31T18:20:45.883Z,44.09
2022-07-31T18:28:20.835Z,46.45
2022-07-31T18:35:57.931Z,47.84
2022-07-31T18:43:33.657Z,47.86
2022-07-31T18:51:07.309Z,47.32
2022-07-31T18:58:43.287Z,48.83
2022-07-31T19:06:17.213Z,49.42
2022-07-31T19:13:52.212Z,49.78
2022-07-31T19:21:41.663Z,49.88
2022-07-31T19:29:19.069Z,49.80
2022-07-31T19:36:52.745Z,50.14
2022-07-31T19:44:27.664Z,48.83
2022-07-31T19:52:01.726Z,48.48
2022-07-31T19:59:37.553Z,49.92
2022-07-31T20:07:11.285Z,52.18
2022-07-31T20:14:46.303Z,52.09
2022-07-31T20:22:21.339Z,50.69
2022-07-31T20:29:56.399Z,51.61
2022-07-31T20:37:29.970Z,51.96
2022-07-31T20:45:05.179Z,54.23
2022-07-31T20:52:38.765Z,54.55
2022-07-31T21:00:14.407Z,54.48
2022-07-31T21:07:48.584Z,47.97
2022-07-31T21:15:41.238Z,49.33
2022-07-31T21:23:17.631Z,50.45
2022-07-31T21:30:53.799Z,51.59
2022-07-31T21:38:27.515Z,52.39
2022-07-31T21:46:03.520Z,53.71
2022-07-31T21:53:39.255Z,54.34
2022-07-31T22:01:15.232Z,52.34
2022-07-31T22:08:49.017Z,52.76
2022-07-31T22:16:23.916Z,55.28
2022-07-31T22:23:58.140Z,55.55
2022-07-31T22:31:33.278Z,55.88
2022-07-31T22:39:06.941Z,55.53
2022-07-31T22:46:42.613Z,55.92
2022-07-31T22:54:16.386Z,56.54
2022-07-31T23:01:51.364Z,57.78
2022-07-31T23:09:25.045Z,58.40
2022-07-31T23:17:00.216Z,59.77
2022-07-31T23:24:33.895Z,62.34
2022-07-31T23:32:08.995Z,64.81
2022-07-31T23:39:42.777Z,66.66
2022-07-31T23:47:17.834Z,67.34
2022-07-31T23:54:51.556Z,69.78
